Wetterdaten: Woche 17.09.18 - 23.09.18 (KW38)
Datum Zeit Temp. A. Feuchte A. Luftdruck Regen Wind Richtung Taupunkt Windchill Windben
17.09.2018 00:00 14,4 C 80 % 1020,6 hPa 0,0 l/m 0,0 km/h N 11,0 C 14,4 C 0,0 km/h
17.09.2018 01:00 14,0 C 80 % 1020,4 hPa 0,0 l/m 0,0 km/h N 10,6 C 14,0 C 0,0 km/h
17.09.2018 02:00 13,7 C 80 % 1020,3 hPa 0,0 l/m 0,0 km/h N 10,3 C 13,7 C 0,0 km/h
17.09.2018 03:00 13,4 C 80 % 1020,4 hPa 0,0 l/m 0,0 km/h N 10,0 C 13,4 C 0,0 km/h
17.09.2018 04:00 13,4 C 81 % 1020,5 hPa 0,0 l/m 0,0 km/h N 10,2 C 13,4 C 0,0 km/h
17.09.2018 05:00 13,3 C 81 % 1020,7 hPa 0,0 l/m 0,0 km/h N 10,1 C 13,3 C 0,0 km/h
17.09.2018 06:00 13,3 C 81 % 1021,2 hPa 0,0 l/m 0,0 km/h N 10,1 C 13,3 C 0,0 km/h
17.09.2018 07:00 13,1 C 82 % 1021,8 hPa 0,0 l/m 0,0 km/h N 10,0 C 13,1 C 0,0 km/h
17.09.2018 08:00 14,4 C 82 % 1022,2 hPa 0,0 l/m 0,0 km/h N 11,4 C 14,4 C 0,0 km/h
17.09.2018 09:00 15,5 C 82 % 1022,7 hPa 0,0 l/m 0,0 km/h N 12,3 C 15,5 C 1,2 km/h
17.09.2018 10:00 18,2 C 80 % 1022,5 hPa 0,0 l/m 0,1 km/h N 14,7 C 18,2 C 2,8 km/h
17.09.2018 11:00 22,5 C 72 % 1022,0 hPa 0,0 l/m 0,1 km/h N 17,2 C 22,5 C 3,2 km/h
17.09.2018 12:00 24,7 C 66 % 1021,4 hPa 0,0 l/m 0,2 km/h N 17,7 C 24,7 C 2,8 km/h
17.09.2018 13:00 25,3 C 64 % 1021,0 hPa 0,0 l/m 0,4 km/h N 17,8 C 25,3 C 5,2 km/h
17.09.2018 14:00 25,0 C 64 % 1020,6 hPa 0,0 l/m 0,4 km/h N 17,7 C 25,0 C 6,8 km/h
17.09.2018 15:00 24,8 C 65 % 1020,0 hPa 0,0 l/m 0,5 km/h N 17,6 C 24,8 C 4,8 km/h
17.09.2018 16:00 24,9 C 63 % 1019,6 hPa 0,0 l/m 0,3 km/h N 17,3 C 24,9 C 2,8 km/h
17.09.2018 17:00 24,4 C 65 % 1019,2 hPa 0,0 l/m 0,0 km/h N 17,4 C 24,4 C 3,2 km/h
17.09.2018 18:00 23,8 C 66 % 1019,0 hPa 0,0 l/m 0,0 km/h N 17,1 C 23,8 C 2,0 km/h
17.09.2018 19:00 22,4 C 69 % 1019,2 hPa 0,0 l/m 0,0 km/h N 16,4 C 22,4 C 0,0 km/h
17.09.2018 20:00 20,3 C 74 % 1019,5 hPa 0,0 l/m 0,0 km/h N 15,6 C 20,3 C 0,0 km/h
17.09.2018 21:00 18,6 C 78 % 1019,5 hPa 0,0 l/m 0,0 km/h N 14,7 C 18,6 C 0,0 km/h
17.09.2018 22:00 17,4 C 79 % 1019,3 hPa 0,0 l/m 0,0 km/h N 13,7 C 17,4 C 0,0 km/h
17.09.2018 23:00 16,5 C 79 % 1018,9 hPa 0,0 l/m 0,0 km/h N 12,9 C 16,5 C 0,0 km/h
18.09.2018 00:00 15,8 C 79 % 1018,8 hPa 0,0 l/m 0,0 km/h N 12,2 C 15,8 C 0,0 km/h
18.09.2018 01:00 15,1 C 79 % 1018,6 hPa 0,0 l/m 0,0 km/h N 11,5 C 15,1 C 0,0 km/h
18.09.2018 02:00 14,7 C 80 % 1018,3 hPa 0,0 l/m 0,0 km/h N 11,2 C 14,7 C 0,0 km/h
18.09.2018 03:00 14,2 C 80 % 1018,1 hPa 0,0 l/m 0,0 km/h N 10,8 C 14,2 C 0,0 km/h
18.09.2018 04:00 13,9 C 80 % 1018,2 hPa 0,0 l/m 0,0 km/h N 10,5 C 13,9 C 0,0 km/h
18.09.2018 05:00 13,5 C 81 % 1018,3 hPa 0,0 l/m 0,0 km/h N 10,2 C 13,5 C 0,0 km/h
18.09.2018 06:00 13,0 C 81 % 1018,5 hPa 0,0 l/m 0,0 km/h N 9,8 C 13,0 C 0,0 km/h
18.09.2018 07:00 12,9 C 81 % 1018,9 hPa 0,0 l/m 0,0 km/h N 9,8 C 12,9 C 0,0 km/h
18.09.2018 08:00 14,4 C 82 % 1019,1 hPa 0,0 l/m 0,0 km/h N 11,4 C 14,4 C 0,0 km/h
18.09.2018 09:00 16,9 C 82 % 1019,0 hPa 0,0 l/m 1,0 km/h N 13,7 C 16,9 C 6,4 km/h
18.09.2018 10:00 20,6 C 79 % 1019,0 hPa 0,0 l/m 1,0 km/h N 16,7 C 20,6 C 7,6 km/h
18.09.2018 11:00 25,6 C 58 % 1018,5 hPa 0,0 l/m 2,9 km/h N 16,6 C 25,6 C 10,9 km/h
18.09.2018 12:00 27,5 C 47 % 1018,4 hPa 0,0 l/m 4,3 km/h N 15,2 C 27,5 C 14,5 km/h
18.09.2018 13:00 27,3 C 45 % 1018,1 hPa 0,0 l/m 5,0 km/h N 14,3 C 27,3 C 14,9 km/h
18.09.2018 14:00 27,5 C 45 % 1017,7 hPa 0,0 l/m 4,3 km/h N 14,3 C 27,5 C 14,9 km/h
18.09.2018 15:00 27,2 C 45 % 1017,3 hPa 0,0 l/m 3,9 km/h N 14,3 C 27,2 C 14,1 km/h
18.09.2018 16:00 26,6 C 46 % 1017,1 hPa 0,0 l/m 4,3 km/h N 14,1 C 26,6 C 16,5 km/h
18.09.2018 17:00 26,0 C 48 % 1017,0 hPa 0,0 l/m 2,9 km/h N 14,0 C 26,0 C 9,7 km/h
18.09.2018 18:00 24,9 C 51 % 1017,0 hPa 0,0 l/m 2,5 km/h N 14,0 C 24,9 C 7,6 km/h
18.09.2018 19:00 23,3 C 55 % 1017,2 hPa 0,0 l/m 0,9 km/h N 13,6 C 23,3 C 5,6 km/h
18.09.2018 20:00 21,9 C 59 % 1017,5 hPa 0,0 l/m 0,2 km/h N 13,4 C 21,9 C 3,6 km/h
18.09.2018 21:00 19,9 C 66 % 1017,8 hPa 0,0 l/m 0,0 km/h N 13,3 C 19,9 C 0,8 km/h
18.09.2018 22:00 18,1 C 72 % 1017,7 hPa 0,0 l/m 0,0 km/h N 12,9 C 18,1 C 0,4 km/h
18.09.2018 23:00 17,3 C 74 % 1017,6 hPa 0,0 l/m 0,0 km/h N 12,5 C 17,3 C 0,0 km/h
19.09.2018 00:00 15,7 C 77 % 1017,8 hPa 0,0 l/m 0,0 km/h N 11,7 C 15,7 C 0,0 km/h
19.09.2018 01:00 14,7 C 79 % 1017,7 hPa 0,0 l/m 0,1 km/h N 11,0 C 14,7 C 0,8 km/h
19.09.2018 02:00 14,3 C 79 % 1018,2 hPa 0,0 l/m 0,1 km/h N 10,7 C 14,3 C 1,2 km/h
19.09.2018 03:00 14,1 C 79 % 1018,3 hPa 0,0 l/m 0,0 km/h N 10,5 C 14,1 C 0,8 km/h
19.09.2018 04:00 14,0 C 79 % 1018,5 hPa 0,0 l/m 0,0 km/h N 10,4 C 14,0 C 0,0 km/h
19.09.2018 05:00 13,7 C 80 % 1018,5 hPa 0,0 l/m 0,0 km/h N 10,2 C 13,7 C 0,0 km/h
19.09.2018 06:00 13,8 C 80 % 1018,7 hPa 0,0 l/m 0,0 km/h N 10,4 C 13,8 C 0,0 km/h
19.09.2018 07:00 14,2 C 80 % 1019,3 hPa 0,0 l/m 0,0 km/h N 10,8 C 14,2 C 0,0 km/h
19.09.2018 08:00 15,0 C 81 % 1019,8 hPa 0,0 l/m 0,0 km/h N 11,7 C 15,0 C 0,0 km/h
19.09.2018 09:00 16,7 C 80 % 1020,3 hPa 0,0 l/m 0,0 km/h N 13,2 C 16,7 C 0,8 km/h
19.09.2018 10:00 19,9 C 77 % 1020,5 hPa 0,0 l/m 0,1 km/h N 15,7 C 19,9 C 1,6 km/h
19.09.2018 11:00 22,1 C 71 % 1020,4 hPa 0,0 l/m 0,1 km/h N 16,5 C 22,1 C 2,8 km/h
19.09.2018 12:00 24,4 C 64 % 1020,0 hPa 0,0 l/m 2,2 km/h N 17,2 C 24,4 C 8,9 km/h
19.09.2018 13:00 24,6 C 61 % 1019,6 hPa 0,0 l/m 3,9 km/h N 16,4 C 24,6 C 11,7 km/h
19.09.2018 14:00 25,0 C 61 % 1019,4 hPa 0,0 l/m 4,7 km/h N 16,9 C 25,0 C 15,3 km/h
19.09.2018 15:00 24,9 C 60 % 1019,1 hPa 0,0 l/m 2,8 km/h N 16,6 C 24,9 C 10,5 km/h
19.09.2018 16:00 25,2 C 57 % 1019,1 hPa 0,0 l/m 3,5 km/h N 16,0 C 25,2 C 12,5 km/h
19.09.2018 17:00 25,1 C 58 % 1019,1 hPa 0,0 l/m 1,5 km/h N 16,1 C 25,1 C 9,6 km/h
19.09.2018 18:00 24,5 C 59 % 1019,1 hPa 0,0 l/m 0,6 km/h N 15,9 C 24,5 C 3,6 km/h
19.09.2018 19:00 22,7 C 63 % 1019,5 hPa 0,0 l/m 0,2 km/h N 15,3 C 22,7 C 2,0 km/h
19.09.2018 20:00 20,4 C 69 % 1019,9 hPa 0,0 l/m 0,0 km/h N 14,6 C 20,4 C 0,4 km/h
19.09.2018 21:00 19,0 C 74 % 1020,2 hPa 0,0 l/m 0,0 km/h N 14,2 C 19,0 C 0,0 km/h
19.09.2018 22:00 18,0 C 76 % 1020,1 hPa 0,0 l/m 0,0 km/h N 13,7 C 18,0 C 0,0 km/h
19.09.2018 23:00 17,4 C 78 % 1020,0 hPa 0,0 l/m 0,0 km/h N 13,5 C 17,4 C 0,4 km/h
20.09.2018 00:00 17,5 C 78 % 1020,0 hPa 0,0 l/m 0,5 km/h N 13,7 C 17,5 C 2,8 km/h
20.09.2018 01:00 16,9 C 79 % 1019,9 hPa 0,0 l/m 0,1 km/h N 13,1 C 16,9 C 2,4 km/h
20.09.2018 02:00 15,9 C 79 % 1019,9 hPa 0,0 l/m 0,1 km/h N 12,3 C 15,9 C 0,8 km/h
20.09.2018 03:00 15,5 C 79 % 1019,8 hPa 0,0 l/m 0,2 km/h N 11,9 C 15,5 C 1,6 km/h
20.09.2018 04:00 14,9 C 80 % 1020,0 hPa 0,0 l/m 0,0 km/h N 11,5 C 14,9 C 0,0 km/h
20.09.2018 05:00 14,4 C 80 % 1020,0 hPa 0,0 l/m 0,0 km/h N 10,9 C 14,4 C 0,0 km/h
20.09.2018 06:00 13,9 C 80 % 1020,3 hPa 0,0 l/m 0,0 km/h N 10,5 C 13,9 C 0,0 km/h
20.09.2018 07:00 13,9 C 80 % 1020,6 hPa 0,0 l/m 0,0 km/h N 10,5 C 13,9 C 0,0 km/h
20.09.2018 08:00 15,2 C 81 % 1020,8 hPa 0,0 l/m 0,0 km/h N 12,0 C 15,2 C 0,4 km/h
20.09.2018 09:00 17,3 C 81 % 1020,9 hPa 0,0 l/m 0,0 km/h N 14,0 C 17,3 C 1,6 km/h
20.09.2018 10:00 21,3 C 77 % 1020,7 hPa 0,0 l/m 0,0 km/h N 17,2 C 21,3 C 1,2 km/h
20.09.2018 11:00 24,9 C 64 % 1020,3 hPa 0,0 l/m 0,1 km/h N 17,7 C 24,9 C 2,4 km/h
20.09.2018 12:00 26,0 C 60 % 1019,7 hPa 0,0 l/m 0,3 km/h N 17,6 C 26,0 C 6,0 km/h
20.09.2018 13:00 26,4 C 55 % 1019,2 hPa 0,0 l/m 0,8 km/h N 16,5 C 26,4 C 5,2 km/h
20.09.2018 14:00 26,3 C 55 % 1018,7 hPa 0,0 l/m 1,1 km/h N 16,4 C 26,3 C 6,0 km/h
20.09.2018 15:00 26,7 C 54 % 1018,2 hPa 0,0 l/m 0,5 km/h N 16,5 C 26,7 C 6,4 km/h
20.09.2018 16:00 26,5 C 54 % 1017,8 hPa 0,0 l/m 0,2 km/h N 16,4 C 26,5 C 3,6 km/h
20.09.2018 17:00 25,9 C 58 % 1017,6 hPa 0,0 l/m 0,1 km/h N 16,9 C 25,9 C 2,8 km/h
20.09.2018 18:00 24,8 C 60 % 1017,5 hPa 0,0 l/m 0,0 km/h N 16,4 C 24,8 C 0,8 km/h
20.09.2018 19:00 23,1 C 65 % 1017,6 hPa 0,0 l/m 0,0 km/h N 16,2 C 23,1 C 0,0 km/h
20.09.2018 20:00 20,7 C 73 % 1017,8 hPa 0,0 l/m 0,0 km/h N 15,6 C 20,7 C 0,0 km/h
20.09.2018 21:00 18,9 C 77 % 1017,7 hPa 0,0 l/m 0,0 km/h N 14,7 C 18,9 C 0,0 km/h
20.09.2018 22:00 17,7 C 79 % 1017,5 hPa 0,0 l/m 0,0 km/h N 13,9 C 17,7 C 0,0 km/h
20.09.2018 23:00 16,7 C 79 % 1017,3 hPa 0,0 l/m 0,0 km/h N 13,1 C 16,7 C 0,0 km/h
21.09.2018 00:00 16,0 C 79 % 1016,8 hPa 0,0 l/m 0,0 km/h N 12,4 C 16,0 C 0,0 km/h
21.09.2018 01:00 15,3 C 80 % 1016,6 hPa 0,0 l/m 0,0 km/h N 11,8 C 15,3 C 0,0 km/h
21.09.2018 02:00 14,8 C 80 % 1016,2 hPa 0,0 l/m 0,0 km/h N 11,3 C 14,8 C 0,0 km/h
21.09.2018 03:00 14,3 C 80 % 1015,9 hPa 0,0 l/m 0,0 km/h N 10,8 C 14,3 C 0,0 km/h
21.09.2018 04:00 13,6 C 80 % 1015,6 hPa 0,0 l/m 0,0 km/h N 10,3 C 13,6 C 0,0 km/h
21.09.2018 05:00 13,3 C 80 % 1015,2 hPa 0,0 l/m 0,0 km/h N 9,9 C 13,3 C 0,0 km/h
21.09.2018 06:00 12,9 C 80 % 1015,0 hPa 0,0 l/m 0,0 km/h N 9,5 C 12,9 C 0,0 km/h
21.09.2018 07:00 12,8 C 81 % 1015,1 hPa 0,0 l/m 0,0 km/h N 9,6 C 12,8 C 0,0 km/h
21.09.2018 08:00 14,5 C 82 % 1014,9 hPa 0,0 l/m 0,0 km/h N 11,4 C 14,5 C 1,2 km/h
21.09.2018 09:00 16,9 C 81 % 1014,5 hPa 0,0 l/m 0,0 km/h N 13,6 C 16,9 C 2,0 km/h
21.09.2018 10:00 20,0 C 80 % 1013,9 hPa 0,0 l/m 0,3 km/h N 16,5 C 20,0 C 3,2 km/h
21.09.2018 11:00 24,7 C 69 % 1013,0 hPa 0,0 l/m 0,6 km/h N 18,5 C 24,7 C 5,6 km/h
21.09.2018 12:00 27,9 C 55 % 1012,3 hPa 0,0 l/m 2,1 km/h N 17,8 C 27,9 C 9,7 km/h
21.09.2018 13:00 28,9 C 51 % 1011,7 hPa 0,0 l/m 1,7 km/h N 17,6 C 28,9 C 8,8 km/h
21.09.2018 14:00 28,9 C 50 % 1011,3 hPa 0,0 l/m 1,4 km/h N 17,5 C 28,9 C 10,1 km/h
21.09.2018 15:00 28,8 C 51 % 1010,7 hPa 0,0 l/m 1,4 km/h N 17,5 C 28,8 C 7,6 km/h
21.09.2018 16:00 28,2 C 52 % 1010,2 hPa 0,0 l/m 1,5 km/h N 17,3 C 28,2 C 9,6 km/h
21.09.2018 17:00 27,6 C 53 % 1010,0 hPa 0,0 l/m 1,7 km/h N 17,2 C 27,6 C 12,1 km/h
21.09.2018 18:00 26,8 C 56 % 1009,8 hPa 0,0 l/m 0,5 km/h N 17,2 C 26,8 C 5,2 km/h
21.09.2018 19:00 24,8 C 62 % 1009,9 hPa 0,0 l/m 0,1 km/h N 17,0 C 24,8 C 2,0 km/h
21.09.2018 20:00 22,3 C 70 % 1009,9 hPa 0,0 l/m 0,2 km/h N 16,4 C 22,3 C 3,6 km/h
21.09.2018 21:00 20,8 C 74 % 1010,1 hPa 0,0 l/m 0,0 km/h N 15,9 C 20,8 C 0,4 km/h
21.09.2018 22:00 19,0 C 77 % 1010,2 hPa 0,0 l/m 0,0 km/h N 15,0 C 19,0 C 0,4 km/h
21.09.2018 23:00 18,3 C 79 % 1010,5 hPa 0,0 l/m 0,0 km/h N 14,6 C 18,3 C 1,2 km/h
22.09.2018 00:00 20,2 C 77 % 1012,2 hPa 0,0 l/m 9,0 km/h N 16,0 C 19,4 C 27,8 km/h
22.09.2018 01:00 19,4 C 78 % 1012,6 hPa 0,0 l/m 3,9 km/h N 15,4 C 19,4 C 13,7 km/h
22.09.2018 02:00 19,6 C 77 % 1013,7 hPa 0,0 l/m 9,0 km/h N 15,5 C 18,3 C 28,6 km/h
22.09.2018 03:00 15,8 C 77 % 1016,5 hPa 0,3 l/m 13,1 km/h N 11,8 C 12,8 C 39,4 km/h
22.09.2018 04:00 13,5 C 79 % 1017,9 hPa 0,3 l/m 11,6 km/h N 9,8 C 10,7 C 34,2 km/h
22.09.2018 05:00 13,3 C 79 % 1019,1 hPa 0,0 l/m 9,5 km/h N 9,7 C 11,6 C 31,4 km/h
22.09.2018 06:00 12,6 C 80 % 1019,8 hPa 0,8 l/m 6,7 km/h N 9,2 C 12,2 C 25,0 km/h
22.09.2018 07:00 12,1 C 80 % 1020,5 hPa 1,8 l/m 5,0 km/h N 8,8 C 12,1 C 17,7 km/h
22.09.2018 08:00 12,3 C 80 % 1021,0 hPa 0,3 l/m 5,5 km/h N 8,9 C 12,2 C 16,9 km/h
22.09.2018 09:00 13,2 C 79 % 1021,4 hPa 0,0 l/m 7,5 km/h N 9,6 C 12,4 C 24,1 km/h
22.09.2018 10:00 14,1 C 77 % 1022,0 hPa 0,0 l/m 6,8 km/h N 10,1 C 13,8 C 20,5 km/h
22.09.2018 11:00 14,8 C 73 % 1022,2 hPa 0,0 l/m 5,0 km/h N 10,0 C 14,6 C 20,9 km/h
22.09.2018 12:00 15,6 C 65 % 1021,9 hPa 0,0 l/m 6,4 km/h N 9,0 C 15,4 C 20,1 km/h
22.09.2018 13:00 16,0 C 62 % 1021,5 hPa 0,0 l/m 6,9 km/h N 8,6 C 15,6 C 21,3 km/h
22.09.2018 14:00 16,4 C 59 % 1021,4 hPa 0,0 l/m 7,5 km/h N 8,5 C 15,7 C 22,9 km/h
22.09.2018 15:00 17,0 C 57 % 1021,4 hPa 0,0 l/m 4,5 km/h N 8,4 C 17,0 C 17,3 km/h
22.09.2018 16:00 17,1 C 57 % 1020,8 hPa 0,0 l/m 2,3 km/h N 8,5 C 17,1 C 12,5 km/h
22.09.2018 17:00 17,1 C 58 % 1020,8 hPa 0,0 l/m 1,8 km/h N 8,6 C 17,1 C 11,7 km/h
22.09.2018 18:00 16,7 C 61 % 1020,5 hPa 0,0 l/m 0,1 km/h N 9,0 C 16,7 C 3,2 km/h
22.09.2018 19:00 15,6 C 65 % 1020,4 hPa 0,0 l/m 0,0 km/h N 9,1 C 15,6 C 0,0 km/h
22.09.2018 20:00 14,9 C 69 % 1020,5 hPa 0,0 l/m 0,1 km/h N 9,3 C 14,9 C 2,0 km/h
22.09.2018 21:00 14,4 C 74 % 1020,4 hPa 0,0 l/m 0,0 km/h N 9,8 C 14,4 C 0,4 km/h
22.09.2018 22:00 13,8 C 76 % 1020,8 hPa 0,0 l/m 0,0 km/h N 9,7 C 13,8 C 0,0 km/h
22.09.2018 23:00 13,3 C 78 % 1020,8 hPa 0,0 l/m 0,0 km/h N 9,5 C 13,3 C 0,0 km/h
23.09.2018 00:00 12,9 C 78 % 1020,7 hPa 0,0 l/m 0,0 km/h N 9,2 C 12,9 C 0,0 km/h
23.09.2018 01:00 12,9 C 78 % 1020,5 hPa 0,0 l/m 0,0 km/h N 9,2 C 12,9 C 0,0 km/h
23.09.2018 02:00 12,9 C 75 % 1020,4 hPa 0,0 l/m 0,0 km/h N 8,7 C 12,9 C 0,0 km/h
23.09.2018 03:00 13,0 C 76 % 1019,9 hPa 0,0 l/m 0,1 km/h N 8,9 C 13,0 C 1,6 km/h
23.09.2018 04:00 12,8 C 77 % 1019,8 hPa 0,0 l/m 0,0 km/h N 8,9 C 12,8 C 0,0 km/h
23.09.2018 05:00 12,4 C 78 % 1019,6 hPa 0,0 l/m 0,0 km/h N 8,6 C 12,4 C 0,8 km/h
23.09.2018 06:00 13,1 C 77 % 1019,5 hPa 0,0 l/m 1,8 km/h N 9,1 C 13,1 C 11,6 km/h
23.09.2018 07:00 13,9 C 74 % 1019,3 hPa 0,0 l/m 0,0 km/h N 9,4 C 13,9 C 0,4 km/h
23.09.2018 08:00 13,8 C 76 % 1019,2 hPa 0,0 l/m 0,0 km/h N 9,6 C 13,8 C 0,4 km/h
23.09.2018 09:00 14,3 C 77 % 1019,1 hPa 0,0 l/m 0,1 km/h N 10,2 C 14,3 C 1,2 km/h
23.09.2018 10:00 14,9 C 76 % 1018,7 hPa 0,0 l/m 0,6 km/h N 10,7 C 14,9 C 4,8 km/h
23.09.2018 11:00 16,3 C 74 % 1018,1 hPa 0,0 l/m 0,3 km/h N 11,6 C 16,3 C 4,4 km/h
23.09.2018 12:00 17,0 C 72 % 1017,4 hPa 0,3 l/m 1,1 km/h N 11,9 C 17,0 C 7,2 km/h
23.09.2018 13:00 17,0 C 76 % 1016,5 hPa 0,0 l/m 0,3 km/h N 12,7 C 17,0 C 3,2 km/h
23.09.2018 14:00 16,4 C 78 % 1015,5 hPa 0,0 l/m 1,1 km/h N 12,5 C 16,4 C 7,6 km/h
23.09.2018 15:00 16,5 C 79 % 1014,3 hPa 0,0 l/m 1,4 km/h N 12,9 C 16,5 C 6,8 km/h
23.09.2018 16:00 17,1 C 79 % 1012,7 hPa 0,0 l/m 1,0 km/h N 13,4 C 17,1 C 8,8 km/h
23.09.2018 17:00 18,3 C 74 % 1010,8 hPa 0,0 l/m 1,6 km/h N 13,6 C 18,3 C 8,9 km/h
23.09.2018 18:00 18,2 C 74 % 1009,0 hPa 0,0 l/m 1,8 km/h N 13,5 C 18,2 C 8,4 km/h
23.09.2018 19:00 17,8 C 75 % 1007,5 hPa 0,0 l/m 1,1 km/h N 13,2 C 17,8 C 5,6 km/h
23.09.2018 20:00 17,2 C 76 % 1006,0 hPa 0,0 l/m 0,4 km/h N 12,8 C 17,2 C 4,8 km/h
23.09.2018 21:00 16,1 C 78 % 1005,1 hPa 0,0 l/m 0,7 km/h N 12,3 C 16,1 C 3,2 km/h
23.09.2018 22:00 15,7 C 80 % 1005,2 hPa 0,8 l/m 1,0 km/h N 12,2 C 15,7 C 5,6 km/h
23.09.2018 23:00 16,1 C 79 % 1006,9 hPa 1,3 l/m 6,1 km/h N 12,5 C 15,3 C 20,5 km/h
Min-Datum _ 22.09.18 18.09.18 23.09.18 - 17.09.18 - 22.09.18 22.09.18 17.09.18
_ Min-Zeit 07:30 14:30 21:30 - 00:00 - 14:15 04:00 00:00
Minimum _ 12,0 C 44 % 1004,9 hPa - 0,0 km/h - 8,0 C 10,3 C 0,0 km/h
Max-Datum _ 21.09.18 17.09.18 17.09.18 22.09.18 22.09.18 - 20.09.18 21.09.18 22.09.18
_ Max-Zeit 13:45 07:30 09:30 07:00 03:15 - 12:15 13:30 03:15
Maximum _ 29,1 C 82 % 1022,8 hPa 1,8 l/m 15,4 km/h
N
- 18,7 C 29,0 C 45,1 km/h
N
Durchschnitt _ 18,4 C 72 % 1017,8 hPa #5,7 l/m 1,3 km/h N 13,0 C 18,3 C 5,4 km/h